sensor_id;sensor_type;location;lat;lon;timestamp;P1;durP1;ratioP1;P2;durP2;ratioP2
16308;SDS011;8263;48.880;9.276;2024-03-23T00:55:19;169.27;;;155.85;;
16308;SDS011;8263;48.880;9.276;2024-03-23T00:57:45;170.68;;;157.02;;
16308;SDS011;8263;48.880;9.276;2024-03-23T01:00:12;167.98;;;154.68;;
16308;SDS011;8263;48.880;9.276;2024-03-23T01:02:37;168.13;;;154.80;;
16308;SDS011;8263;48.880;9.276;2024-03-23T01:05:04;168.07;;;154.75;;
16308;SDS011;8263;48.880;9.276;2024-03-23T01:07:30;168.68;;;155.27;;
16308;SDS011;8263;48.880;9.276;2024-03-23T01:09:58;168.27;;;154.98;;
16308;SDS011;8263;48.880;9.276;2024-03-23T01:12:23;168.77;;;155.20;;
16308;SDS011;8263;48.880;9.276;2024-03-23T01:14:50;168.50;;;155.02;;
16308;SDS011;8263;48.880;9.276;2024-03-23T01:17:15;168.50;;;155.15;;
16308;SDS011;8263;48.880;9.276;2024-03-23T01:19:42;168.55;;;155.13;;
16308;SDS011;8263;48.880;9.276;2024-03-23T01:22:07;167.70;;;154.40;;
16308;SDS011;8263;48.880;9.276;2024-03-23T01:24:35;168.68;;;155.27;;
16308;SDS011;8263;48.880;9.276;2024-03-23T01:27:02;169.43;;;155.95;;
16308;SDS011;8263;48.880;9.276;2024-03-23T01:29:29;171.52;;;157.88;;
16308;SDS011;8263;48.880;9.276;2024-03-23T01:31:54;170.00;;;156.30;;
16308;SDS011;8263;48.880;9.276;2024-03-23T01:34:21;169.23;;;155.77;;
16308;SDS011;8263;48.880;9.276;2024-03-23T01:36:47;168.90;;;155.48;;
16308;SDS011;8263;48.880;9.276;2024-03-23T01:39:13;169.65;;;156.13;;
16308;SDS011;8263;48.880;9.276;2024-03-23T01:41:39;169.15;;;155.68;;
16308;SDS011;8263;48.880;9.276;2024-03-23T01:44:09;170.27;;;156.68;;
16308;SDS011;8263;48.880;9.276;2024-03-23T01:46:34;170.10;;;156.52;;
16308;SDS011;8263;48.880;9.276;2024-03-23T01:49:01;170.02;;;156.38;;
16308;SDS011;8263;48.880;9.276;2024-03-23T01:51:27;170.63;;;156.85;;
16308;SDS011;8263;48.880;9.276;2024-03-23T01:53:53;170.85;;;156.82;;
16308;SDS011;8263;48.880;9.276;2024-03-23T01:56:19;170.07;;;156.35;;
16308;SDS011;8263;48.880;9.276;2024-03-23T01:58:46;170.13;;;156.55;;
16308;SDS011;8263;48.880;9.276;2024-03-23T02:01:13;171.68;;;157.80;;
16308;SDS011;8263;48.880;9.276;2024-03-23T02:03:39;167.77;;;154.38;;
16308;SDS011;8263;48.880;9.276;2024-03-23T02:06:05;170.15;;;156.48;;
16308;SDS011;8263;48.880;9.276;2024-03-23T02:08:32;170.35;;;156.68;;
16308;SDS011;8263;48.880;9.276;2024-03-23T02:10:58;170.98;;;157.25;;
16308;SDS011;8263;48.880;9.276;2024-03-23T02:13:24;169.85;;;156.30;;
16308;SDS011;8263;48.880;9.276;2024-03-23T02:15:50;169.57;;;156.02;;
16308;SDS011;8263;48.880;9.276;2024-03-23T02:18:19;170.57;;;156.88;;
16308;SDS011;8263;48.880;9.276;2024-03-23T02:20:44;171.93;;;158.02;;
16308;SDS011;8263;48.880;9.276;2024-03-23T02:23:16;170.93;;;157.23;;
16308;SDS011;8263;48.880;9.276;2024-03-23T02:25:41;170.40;;;156.65;;
16308;SDS011;8263;48.880;9.276;2024-03-23T02:28:08;168.90;;;155.43;;
16308;SDS011;8263;48.880;9.276;2024-03-23T02:30:33;169.82;;;156.30;;
16308;SDS011;8263;48.880;9.276;2024-03-23T02:33:00;171.23;;;157.48;;
16308;SDS011;8263;48.880;9.276;2024-03-23T02:35:25;170.35;;;156.73;;
16308;SDS011;8263;48.880;9.276;2024-03-23T02:37:52;172.27;;;158.35;;
16308;SDS011;8263;48.880;9.276;2024-03-23T02:40:19;170.43;;;156.85;;
16308;SDS011;8263;48.880;9.276;2024-03-23T02:42:46;171.13;;;157.43;;
16308;SDS011;8263;48.880;9.276;2024-03-23T02:45:11;169.13;;;155.65;;
16308;SDS011;8263;48.880;9.276;2024-03-23T02:47:38;171.43;;;157.65;;
16308;SDS011;8263;48.880;9.276;2024-03-23T02:50:03;169.98;;;156.27;;
16308;SDS011;8263;48.880;9.276;2024-03-23T02:52:30;169.20;;;155.73;;
16308;SDS011;8263;48.880;9.276;2024-03-23T02:54:56;172.05;;;158.18;;
16308;SDS011;8263;48.880;9.276;2024-03-23T02:57:23;171.88;;;158.13;;
16308;SDS011;8263;48.880;9.276;2024-03-23T02:59:49;171.52;;;157.68;;
16308;SDS011;8263;48.880;9.276;2024-03-23T03:02:16;171.35;;;157.48;;
16308;SDS011;8263;48.880;9.276;2024-03-23T03:04:41;172.02;;;158.15;;
16308;SDS011;8263;48.880;9.276;2024-03-23T03:07:07;168.70;;;155.20;;
16308;SDS011;8263;48.880;9.276;2024-03-23T03:09:33;173.88;;;159.70;;
16308;SDS011;8263;48.880;9.276;2024-03-23T03:12:00;170.75;;;156.57;;
16308;SDS011;8263;48.880;9.276;2024-03-23T03:14:27;171.68;;;157.88;;
16308;SDS011;8263;48.880;9.276;2024-03-23T03:16:54;171.45;;;157.73;;
16308;SDS011;8263;48.880;9.276;2024-03-23T03:19:19;168.65;;;155.20;;
16308;SDS011;8263;48.880;9.276;2024-03-23T03:21:48;167.30;;;154.02;;
16308;SDS011;8263;48.880;9.276;2024-03-23T03:24:14;171.23;;;157.38;;
16308;SDS011;8263;48.880;9.276;2024-03-23T03:26:41;170.93;;;157.15;;
16308;SDS011;8263;48.880;9.276;2024-03-23T03:29:06;172.75;;;158.73;;
16308;SDS011;8263;48.880;9.276;2024-03-23T03:31:34;171.73;;;157.95;;
16308;SDS011;8263;48.880;9.276;2024-03-23T03:33:59;171.82;;;158.00;;
16308;SDS011;8263;48.880;9.276;2024-03-23T03:36:26;171.00;;;157.30;;
16308;SDS011;8263;48.880;9.276;2024-03-23T03:38:51;169.18;;;155.73;;
16308;SDS011;8263;48.880;9.276;2024-03-23T03:41:18;170.70;;;157.02;;
16308;SDS011;8263;48.880;9.276;2024-03-23T03:43:43;169.88;;;156.00;;
16308;SDS011;8263;48.880;9.276;2024-03-23T03:46:09;171.10;;;157.38;;
16308;SDS011;8263;48.880;9.276;2024-03-23T03:48:37;171.88;;;158.10;;
16308;SDS011;8263;48.880;9.276;2024-03-23T03:51:03;173.55;;;159.55;;
16308;SDS011;8263;48.880;9.276;2024-03-23T03:53:29;171.23;;;157.52;;
16308;SDS011;8263;48.880;9.276;2024-03-23T03:55:55;170.95;;;157.25;;
16308;SDS011;8263;48.880;9.276;2024-03-23T03:58:21;172.52;;;158.65;;
16308;SDS011;8263;48.880;9.276;2024-03-23T04:00:47;171.18;;;157.38;;
16308;SDS011;8263;48.880;9.276;2024-03-23T04:03:13;170.43;;;156.82;;
16308;SDS011;8263;48.880;9.276;2024-03-23T04:05:42;173.07;;;159.10;;
16308;SDS011;8263;48.880;9.276;2024-03-23T04:08:08;171.35;;;157.57;;
16308;SDS011;8263;48.880;9.276;2024-03-23T04:10:35;171.23;;;157.55;;
16308;SDS011;8263;48.880;9.276;2024-03-23T04:13:00;172.75;;;158.90;;
16308;SDS011;8263;48.880;9.276;2024-03-23T04:15:29;171.38;;;157.40;;
16308;SDS011;8263;48.880;9.276;2024-03-23T04:17:54;172.35;;;158.45;;
16308;SDS011;8263;48.880;9.276;2024-03-23T04:20:21;171.27;;;157.55;;
16308;SDS011;8263;48.880;9.276;2024-03-23T04:22:48;174.00;;;159.95;;
16308;SDS011;8263;48.880;9.276;2024-03-23T04:25:14;173.27;;;158.43;;
16308;SDS011;8263;48.880;9.276;2024-03-23T04:27:39;172.50;;;158.60;;
16308;SDS011;8263;48.880;9.276;2024-03-23T04:30:07;172.38;;;158.50;;
16308;SDS011;8263;48.880;9.276;2024-03-23T04:32:36;174.10;;;159.82;;
16308;SDS011;8263;48.880;9.276;2024-03-23T04:35:02;173.07;;;159.10;;
16308;SDS011;8263;48.880;9.276;2024-03-23T04:37:30;173.23;;;159.23;;
16308;SDS011;8263;48.880;9.276;2024-03-23T04:39:58;170.80;;;157.18;;
16308;SDS011;8263;48.880;9.276;2024-03-23T04:42:25;173.45;;;159.45;;
16308;SDS011;8263;48.880;9.276;2024-03-23T04:44:51;169.25;;;155.73;;
16308;SDS011;8263;48.880;9.276;2024-03-23T04:47:17;172.90;;;158.98;;
16308;SDS011;8263;48.880;9.276;2024-03-23T04:49:44;172.13;;;158.32;;
16308;SDS011;8263;48.880;9.276;2024-03-23T04:52:09;173.18;;;159.23;;
16308;SDS011;8263;48.880;9.276;2024-03-23T04:54:36;172.20;;;158.27;;
16308;SDS011;8263;48.880;9.276;2024-03-23T04:57:03;172.85;;;158.95;;
16308;SDS011;8263;48.880;9.276;2024-03-23T04:59:29;171.07;;;157.35;;
16308;SDS011;8263;48.880;9.276;2024-03-23T05:01:55;171.25;;;157.43;;
16308;SDS011;8263;48.880;9.276;2024-03-23T05:04:21;173.18;;;159.25;;
16308;SDS011;8263;48.880;9.276;2024-03-23T05:06:46;171.00;;;157.15;;
16308;SDS011;8263;48.880;9.276;2024-03-23T05:09:13;172.75;;;158.65;;
16308;SDS011;8263;48.880;9.276;2024-03-23T05:11:38;174.63;;;160.20;;
16308;SDS011;8263;48.880;9.276;2024-03-23T05:14:06;173.48;;;159.40;;
16308;SDS011;8263;48.880;9.276;2024-03-23T05:16:32;172.75;;;158.82;;
16308;SDS011;8263;48.880;9.276;2024-03-23T05:18:58;173.30;;;159.32;;
16308;SDS011;8263;48.880;9.276;2024-03-23T05:21:24;171.27;;;157.50;;
16308;SDS011;8263;48.880;9.276;2024-03-23T05:23:50;170.15;;;156.52;;
16308;SDS011;8263;48.880;9.276;2024-03-23T05:26:16;171.25;;;157.35;;
16308;SDS011;8263;48.880;9.276;2024-03-23T05:28:42;173.30;;;159.32;;
16308;SDS011;8263;48.880;9.276;2024-03-23T05:31:10;171.15;;;157.38;;
16308;SDS011;8263;48.880;9.276;2024-03-23T05:33:36;172.02;;;158.05;;
16308;SDS011;8263;48.880;9.276;2024-03-23T05:36:03;171.30;;;157.50;;
16308;SDS011;8263;48.880;9.276;2024-03-23T05:38:30;171.98;;;158.13;;
16308;SDS011;8263;48.880;9.276;2024-03-23T05:40:55;171.07;;;157.25;;
16308;SDS011;8263;48.880;9.276;2024-03-23T05:43:22;171.18;;;157.20;;
16308;SDS011;8263;48.880;9.276;2024-03-23T05:45:52;172.38;;;158.48;;
16308;SDS011;8263;48.880;9.276;2024-03-23T05:48:20;172.18;;;158.25;;
16308;SDS011;8263;48.880;9.276;2024-03-23T05:50:46;171.43;;;157.63;;
16308;SDS011;8263;48.880;9.276;2024-03-23T05:53:12;172.40;;;158.50;;
16308;SDS011;8263;48.880;9.276;2024-03-23T05:55:38;171.13;;;157.43;;
16308;SDS011;8263;48.880;9.276;2024-03-23T05:58:05;170.45;;;156.88;;
16308;SDS011;8263;48.880;9.276;2024-03-23T06:00:30;171.48;;;157.73;;
16308;SDS011;8263;48.880;9.276;2024-03-23T06:02:57;172.50;;;158.63;;
16308;SDS011;8263;48.880;9.276;2024-03-23T06:05:24;172.45;;;158.45;;
16308;SDS011;8263;48.880;9.276;2024-03-23T06:07:51;173.37;;;159.57;;
16308;SDS011;8263;48.880;9.276;2024-03-23T06:10:16;171.48;;;157.70;;
16308;SDS011;8263;48.880;9.276;2024-03-23T06:12:43;169.55;;;156.18;;
16308;SDS011;8263;48.880;9.276;2024-03-23T06:15:09;166.80;;;153.55;;
16308;SDS011;8263;48.880;9.276;2024-03-23T06:17:36;169.80;;;156.30;;
16308;SDS011;8263;48.880;9.276;2024-03-23T06:20:01;169.07;;;155.65;;
16308;SDS011;8263;48.880;9.276;2024-03-23T06:22:30;172.27;;;158.63;;
16308;SDS011;8263;48.880;9.276;2024-03-23T06:24:56;167.07;;;153.88;;
16308;SDS011;8263;48.880;9.276;2024-03-23T06:27:22;168.68;;;155.25;;
16308;SDS011;8263;48.880;9.276;2024-03-23T06:29:48;168.63;;;155.20;;
16308;SDS011;8263;48.880;9.276;2024-03-23T06:32:14;169.25;;;155.77;;
16308;SDS011;8263;48.880;9.276;2024-03-23T06:34:41;168.23;;;154.90;;
16308;SDS011;8263;48.880;9.276;2024-03-23T06:37:08;166.07;;;153.00;;
16308;SDS011;8263;48.880;9.276;2024-03-23T06:39:36;168.32;;;154.98;;
16308;SDS011;8263;48.880;9.276;2024-03-23T06:42:03;166.30;;;153.18;;
16308;SDS011;8263;48.880;9.276;2024-03-23T06:44:28;170.85;;;157.25;;
16308;SDS011;8263;48.880;9.276;2024-03-23T06:46:55;169.38;;;155.88;;
16308;SDS011;8263;48.880;9.276;2024-03-23T06:49:20;170.27;;;156.70;;
16308;SDS011;8263;48.880;9.276;2024-03-23T06:51:47;170.18;;;156.68;;
16308;SDS011;8263;48.880;9.276;2024-03-23T06:54:12;168.98;;;155.57;;
16308;SDS011;8263;48.880;9.276;2024-03-23T06:56:40;169.65;;;156.15;;
16308;SDS011;8263;48.880;9.276;2024-03-23T06:59:06;168.63;;;155.23;;
16308;SDS011;8263;48.880;9.276;2024-03-23T07:01:34;168.85;;;155.45;;
16308;SDS011;8263;48.880;9.276;2024-03-23T07:04:00;170.50;;;156.95;;
16308;SDS011;8263;48.880;9.276;2024-03-23T07:06:26;169.63;;;156.13;;
16308;SDS011;8263;48.880;9.276;2024-03-23T07:08:52;170.43;;;156.85;;
16308;SDS011;8263;48.880;9.276;2024-03-23T07:11:19;169.85;;;156.32;;
16308;SDS011;8263;48.880;9.276;2024-03-23T07:13:46;169.70;;;156.23;;
16308;SDS011;8263;48.880;9.276;2024-03-23T07:16:13;168.82;;;155.45;;
16308;SDS011;8263;48.880;9.276;2024-03-23T07:18:38;171.93;;;158.20;;
16308;SDS011;8263;48.880;9.276;2024-03-23T07:21:04;170.02;;;156.52;;
16308;SDS011;8263;48.880;9.276;2024-03-23T07:23:31;171.23;;;157.55;;
16308;SDS011;8263;48.880;9.276;2024-03-23T07:25:58;169.70;;;156.23;;
16308;SDS011;8263;48.880;9.276;2024-03-23T07:28:24;168.90;;;155.50;;
16308;SDS011;8263;48.880;9.276;2024-03-23T07:31:02;170.90;;;157.30;;
16308;SDS011;8263;48.880;9.276;2024-03-23T07:33:28;167.82;;;154.55;;
16308;SDS011;8263;48.880;9.276;2024-03-23T07:35:54;171.75;;;158.00;;
16308;SDS011;8263;48.880;9.276;2024-03-23T07:38:19;170.35;;;156.80;;
16308;SDS011;8263;48.880;9.276;2024-03-23T07:40:46;166.35;;;153.25;;
16308;SDS011;8263;48.880;9.276;2024-03-23T07:43:11;168.85;;;155.45;;
16308;SDS011;8263;48.880;9.276;2024-03-23T07:45:38;170.27;;;156.75;;
16308;SDS011;8263;48.880;9.276;2024-03-23T07:48:05;170.60;;;157.05;;
16308;SDS011;8263;48.880;9.276;2024-03-23T07:50:31;170.13;;;156.65;;
16308;SDS011;8263;48.880;9.276;2024-03-23T07:52:57;168.95;;;155.55;;
16308;SDS011;8263;48.880;9.276;2024-03-23T07:55:23;169.80;;;156.30;;
16308;SDS011;8263;48.880;9.276;2024-03-23T07:57:50;167.73;;;154.48;;
16308;SDS011;8263;48.880;9.276;2024-03-23T08:00:18;168.75;;;155.40;;
16308;SDS011;8263;48.880;9.276;2024-03-23T08:02:44;169.25;;;155.82;;
16308;SDS011;8263;48.880;9.276;2024-03-23T08:05:12;168.35;;;155.05;;
16308;SDS011;8263;48.880;9.276;2024-03-23T08:07:37;169.18;;;155.77;;
16308;SDS011;8263;48.880;9.276;2024-03-23T08:10:04;170.18;;;156.68;;
16308;SDS011;8263;48.880;9.276;2024-03-23T08:12:30;169.32;;;155.90;;
16308;SDS011;8263;48.880;9.276;2024-03-23T08:14:56;169.05;;;155.65;;
16308;SDS011;8263;48.880;9.276;2024-03-23T08:17:22;169.95;;;156.45;;
16308;SDS011;8263;48.880;9.276;2024-03-23T08:19:49;169.80;;;156.30;;
16308;SDS011;8263;48.880;9.276;2024-03-23T08:22:15;169.65;;;156.20;;
16308;SDS011;8263;48.880;9.276;2024-03-23T08:24:42;169.00;;;155.63;;
16308;SDS011;8263;48.880;9.276;2024-03-23T08:27:07;169.82;;;156.35;;
16308;SDS011;8263;48.880;9.276;2024-03-23T08:29:34;172.23;;;158.48;;
16308;SDS011;8263;48.880;9.276;2024-03-23T08:31:59;170.85;;;157.25;;
16308;SDS011;8263;48.880;9.276;2024-03-23T08:34:26;170.90;;;157.30;;
16308;SDS011;8263;48.880;9.276;2024-03-23T08:36:51;170.10;;;156.60;;
16308;SDS011;8263;48.880;9.276;2024-03-23T08:39:19;171.35;;;157.68;;
16308;SDS011;8263;48.880;9.276;2024-03-23T08:41:45;170.93;;;157.32;;
16308;SDS011;8263;48.880;9.276;2024-03-23T08:44:11;172.15;;;158.43;;
16308;SDS011;8263;48.880;9.276;2024-03-23T08:46:36;169.65;;;156.18;;
16308;SDS011;8263;48.880;9.276;2024-03-23T08:49:03;169.15;;;155.65;;
16308;SDS011;8263;48.880;9.276;2024-03-23T08:51:29;170.50;;;156.98;;
16308;SDS011;8263;48.880;9.276;2024-03-23T08:53:55;168.90;;;155.50;;
16308;SDS011;8263;48.880;9.276;2024-03-23T08:56:22;168.90;;;155.50;;
16308;SDS011;8263;48.880;9.276;2024-03-23T08:58:48;170.23;;;156.65;;
16308;SDS011;8263;48.880;9.276;2024-03-23T09:01:14;170.05;;;156.52;;
16308;SDS011;8263;48.880;9.276;2024-03-23T09:03:40;169.50;;;156.02;;
16308;SDS011;8263;48.880;9.276;2024-03-23T09:06:06;168.60;;;155.23;;
16308;SDS011;8263;48.880;9.276;2024-03-23T09:08:33;169.98;;;156.48;;
16308;SDS011;8263;48.880;9.276;2024-03-23T09:11:03;170.43;;;156.88;;
16308;SDS011;8263;48.880;9.276;2024-03-23T09:13:32;170.52;;;156.95;;
16308;SDS011;8263;48.880;9.276;2024-03-23T09:15:57;171.30;;;157.63;;
16308;SDS011;8263;48.880;9.276;2024-03-23T09:18:24;168.57;;;155.20;;
16308;SDS011;8263;48.880;9.276;2024-03-23T09:20:49;170.32;;;156.65;;
16308;SDS011;8263;48.880;9.276;2024-03-23T09:23:16;167.30;;;154.07;;
16308;SDS011;8263;48.880;9.276;2024-03-23T09:25:41;167.95;;;154.68;;
16308;SDS011;8263;48.880;9.276;2024-03-23T09:28:08;168.70;;;155.27;;
16308;SDS011;8263;48.880;9.276;2024-03-23T09:30:35;168.73;;;155.35;;
16308;SDS011;8263;48.880;9.276;2024-03-23T09:33:07;168.02;;;154.75;;
16308;SDS011;8263;48.880;9.276;2024-03-23T09:35:32;169.70;;;156.20;;
16308;SDS011;8263;48.880;9.276;2024-03-23T09:38:02;170.32;;;156.80;;
16308;SDS011;8263;48.880;9.276;2024-03-23T09:40:27;170.07;;;156.57;;
16308;SDS011;8263;48.880;9.276;2024-03-23T09:42:54;168.95;;;155.52;;
16308;SDS011;8263;48.880;9.276;2024-03-23T09:45:21;168.65;;;155.25;;
16308;SDS011;8263;48.880;9.276;2024-03-23T09:47:49;169.82;;;155.68;;
16308;SDS011;8263;48.880;9.276;2024-03-23T09:50:15;168.45;;;155.10;;
16308;SDS011;8263;48.880;9.276;2024-03-23T09:52:42;167.57;;;154.25;;
16308;SDS011;8263;48.880;9.276;2024-03-23T09:55:08;168.90;;;155.30;;
16308;SDS011;8263;48.880;9.276;2024-03-23T09:57:34;167.68;;;154.40;;
16308;SDS011;8263;48.880;9.276;2024-03-23T09:59:59;169.55;;;156.00;;
16308;SDS011;8263;48.880;9.276;2024-03-23T10:02:26;166.55;;;153.38;;
16308;SDS011;8263;48.880;9.276;2024-03-23T10:04:57;166.13;;;153.05;;
16308;SDS011;8263;48.880;9.276;2024-03-23T10:07:23;167.07;;;153.88;;
16308;SDS011;8263;48.880;9.276;2024-03-23T10:09:49;168.43;;;155.13;;
16308;SDS011;8263;48.880;9.276;2024-03-23T10:12:16;169.02;;;155.63;;
16308;SDS011;8263;48.880;9.276;2024-03-23T10:14:42;168.98;;;155.60;;
16308;SDS011;8263;48.880;9.276;2024-03-23T10:17:15;169.80;;;156.35;;
16308;SDS011;8263;48.880;9.276;2024-03-23T10:19:42;167.68;;;154.35;;
16308;SDS011;8263;48.880;9.276;2024-03-23T10:22:13;169.20;;;155.77;;
16308;SDS011;8263;48.880;9.276;2024-03-23T10:24:38;169.73;;;156.18;;
16308;SDS011;8263;48.880;9.276;2024-03-23T10:27:05;168.10;;;154.80;;
16308;SDS011;8263;48.880;9.276;2024-03-23T10:29:30;167.02;;;153.73;;
16308;SDS011;8263;48.880;9.276;2024-03-23T10:32:09;167.20;;;154.00;;
16308;SDS011;8263;48.880;9.276;2024-03-23T10:34:35;167.13;;;153.90;;
16308;SDS011;8263;48.880;9.276;2024-03-23T10:37:02;167.48;;;154.18;;
16308;SDS011;8263;48.880;9.276;2024-03-23T10:39:29;168.85;;;155.43;;
16308;SDS011;8263;48.880;9.276;2024-03-23T10:41:56;168.55;;;155.13;;
16308;SDS011;8263;48.880;9.276;2024-03-23T10:44:21;168.23;;;154.93;;
16308;SDS011;8263;48.880;9.276;2024-03-23T10:46:50;166.85;;;153.75;;
16308;SDS011;8263;48.880;9.276;2024-03-23T10:49:15;167.23;;;153.88;;
16308;SDS011;8263;48.880;9.276;2024-03-23T10:51:42;167.73;;;154.50;;
16308;SDS011;8263;48.880;9.276;2024-03-23T10:54:07;168.20;;;154.93;;
16308;SDS011;8263;48.880;9.276;2024-03-23T10:56:39;168.10;;;154.80;;
16308;SDS011;8263;48.880;9.276;2024-03-23T10:59:05;166.10;;;153.02;;
16308;SDS011;8263;48.880;9.276;2024-03-23T11:01:33;168.45;;;155.13;;
16308;SDS011;8263;48.880;9.276;2024-03-23T11:03:58;168.32;;;155.02;;
16308;SDS011;8263;48.880;9.276;2024-03-23T11:11:51;168.20;;;154.40;;
16308;SDS011;8263;48.880;9.276;2024-03-23T11:14:21;168.63;;;155.23;;
16308;SDS011;8263;48.880;9.276;2024-03-23T11:16:48;168.73;;;155.27;;
16308;SDS011;8263;48.880;9.276;2024-03-23T11:19:33;166.98;;;153.77;;
16308;SDS011;8263;48.880;9.276;2024-03-23T11:22:01;170.02;;;156.40;;
16308;SDS011;8263;48.880;9.276;2024-03-23T11:24:26;169.40;;;155.98;;
16308;SDS011;8263;48.880;9.276;2024-03-23T11:26:54;170.15;;;156.43;;
16308;SDS011;8263;48.880;9.276;2024-03-23T11:29:20;167.07;;;153.90;;
16308;SDS011;8263;48.880;9.276;2024-03-23T11:31:47;169.70;;;156.18;;
16308;SDS011;8263;48.880;9.276;2024-03-23T11:34:12;169.30;;;155.80;;
16308;SDS011;8263;48.880;9.276;2024-03-23T11:36:39;169.02;;;155.60;;
16308;SDS011;8263;48.880;9.276;2024-03-23T11:39:11;169.68;;;156.07;;
16308;SDS011;8263;48.880;9.276;2024-03-23T11:41:44;169.85;;;156.30;;
16308;SDS011;8263;48.880;9.276;2024-03-23T11:44:15;169.65;;;156.18;;
16308;SDS011;8263;48.880;9.276;2024-03-23T11:46:42;168.95;;;155.50;;
16308;SDS011;8263;48.880;9.276;2024-03-23T11:49:17;168.80;;;155.40;;
16308;SDS011;8263;48.880;9.276;2024-03-23T11:51:47;170.18;;;156.63;;
16308;SDS011;8263;48.880;9.276;2024-03-23T11:54:12;168.00;;;154.73;;
16308;SDS011;8263;48.880;9.276;2024-03-23T11:56:38;168.63;;;155.30;;
16308;SDS011;8263;48.880;9.276;2024-03-23T11:59:04;169.80;;;156.27;;
16308;SDS011;8263;48.880;9.276;2024-03-23T12:01:32;167.82;;;154.55;;
16308;SDS011;8263;48.880;9.276;2024-03-23T12:03:57;166.38;;;153.27;;
16308;SDS011;8263;48.880;9.276;2024-03-23T12:06:24;169.13;;;155.52;;
16308;SDS011;8263;48.880;9.276;2024-03-23T12:08:49;169.38;;;155.88;;
16308;SDS011;8263;48.880;9.276;2024-03-23T12:11:16;168.82;;;155.35;;
16308;SDS011;8263;48.880;9.276;2024-03-23T12:13:42;168.15;;;154.85;;
16308;SDS011;8263;48.880;9.276;2024-03-23T12:16:10;166.60;;;153.45;;
16308;SDS011;8263;48.880;9.276;2024-03-23T12:18:37;169.07;;;155.68;;
16308;SDS011;8263;48.880;9.276;2024-03-23T12:21:05;167.55;;;154.30;;
16308;SDS011;8263;48.880;9.276;2024-03-23T12:23:31;168.35;;;155.02;;
16308;SDS011;8263;48.880;9.276;2024-03-23T12:25:57;167.85;;;154.45;;
16308;SDS011;8263;48.880;9.276;2024-03-23T12:28:23;167.55;;;153.80;;
16308;SDS011;8263;48.880;9.276;2024-03-23T12:30:50;169.02;;;155.63;;
16308;SDS011;8263;48.880;9.276;2024-03-23T12:33:16;168.55;;;155.23;;
16308;SDS011;8263;48.880;9.276;2024-03-23T12:35:44;168.88;;;155.48;;
16308;SDS011;8263;48.880;9.276;2024-03-23T12:38:09;168.80;;;155.43;;
16308;SDS011;8263;48.880;9.276;2024-03-23T12:40:35;168.90;;;155.55;;
16308;SDS011;8263;48.880;9.276;2024-03-23T12:43:01;168.32;;;155.02;;
16308;SDS011;8263;48.880;9.276;2024-03-23T12:45:27;168.63;;;155.30;;
16308;SDS011;8263;48.880;9.276;2024-03-23T12:47:53;167.15;;;153.90;;
16308;SDS011;8263;48.880;9.276;2024-03-23T12:50:19;166.32;;;153.13;;
16308;SDS011;8263;48.880;9.276;2024-03-23T12:52:46;168.98;;;155.63;;
16308;SDS011;8263;48.880;9.276;2024-03-23T12:55:13;166.40;;;153.30;;
16308;SDS011;8263;48.880;9.276;2024-03-23T12:57:38;166.68;;;153.55;;
16308;SDS011;8263;48.880;9.276;2024-03-23T13:00:06;167.65;;;154.40;;
16308;SDS011;8263;48.880;9.276;2024-03-23T13:02:31;167.85;;;154.57;;
16308;SDS011;8263;48.880;9.276;2024-03-23T13:05:00;168.00;;;154.70;;
16308;SDS011;8263;48.880;9.276;2024-03-23T13:07:25;168.98;;;155.48;;
16308;SDS011;8263;48.880;9.276;2024-03-23T13:09:53;166.70;;;153.50;;
16308;SDS011;8263;48.880;9.276;2024-03-23T13:12:19;168.77;;;155.43;;
16308;SDS011;8263;48.880;9.276;2024-03-23T13:14:45;165.82;;;152.73;;
16308;SDS011;8263;48.880;9.276;2024-03-23T13:17:11;167.20;;;154.02;;
16308;SDS011;8263;48.880;9.276;2024-03-23T13:19:37;165.27;;;152.25;;
16308;SDS011;8263;48.880;9.276;2024-03-23T13:22:03;168.50;;;155.15;;
16308;SDS011;8263;48.880;9.276;2024-03-23T13:24:30;167.80;;;154.55;;
16308;SDS011;8263;48.880;9.276;2024-03-23T13:26:57;167.52;;;154.15;;
16308;SDS011;8263;48.880;9.276;2024-03-23T13:29:24;166.57;;;153.45;;
16308;SDS011;8263;48.880;9.276;2024-03-23T13:31:49;165.35;;;152.32;;
16308;SDS011;8263;48.880;9.276;2024-03-23T13:34:16;167.15;;;154.02;;
16308;SDS011;8263;48.880;9.276;2024-03-23T13:36:42;165.77;;;152.75;;
16308;SDS011;8263;48.880;9.276;2024-03-23T13:39:08;165.90;;;152.85;;
16308;SDS011;8263;48.880;9.276;2024-03-23T13:41:36;166.43;;;153.32;;
16308;SDS011;8263;48.880;9.276;2024-03-23T13:44:04;166.70;;;153.57;;
16308;SDS011;8263;48.880;9.276;2024-03-23T13:46:30;166.18;;;153.07;;
16308;SDS011;8263;48.880;9.276;2024-03-23T13:48:56;166.63;;;153.55;;
16308;SDS011;8263;48.880;9.276;2024-03-23T13:51:23;166.23;;;153.18;;
16308;SDS011;8263;48.880;9.276;2024-03-23T13:53:51;165.55;;;152.60;;
16308;SDS011;8263;48.880;9.276;2024-03-23T13:56:18;167.18;;;154.07;;
16308;SDS011;8263;48.880;9.276;2024-03-23T13:58:43;166.63;;;153.55;;
16308;SDS011;8263;48.880;9.276;2024-03-23T14:01:14;165.45;;;152.52;;
16308;SDS011;8263;48.880;9.276;2024-03-23T14:03:39;167.63;;;154.43;;
16308;SDS011;8263;48.880;9.276;2024-03-23T14:06:06;166.68;;;153.60;;
16308;SDS011;8263;48.880;9.276;2024-03-23T14:08:32;165.93;;;152.93;;
16308;SDS011;8263;48.880;9.276;2024-03-23T14:11:00;164.70;;;151.80;;
16308;SDS011;8263;48.880;9.276;2024-03-23T14:13:27;164.70;;;151.82;;
16308;SDS011;8263;48.880;9.276;2024-03-23T14:15:54;166.20;;;153.18;;
16308;SDS011;8263;48.880;9.276;2024-03-23T14:18:20;169.18;;;155.82;;
16308;SDS011;8263;48.880;9.276;2024-03-23T14:20:48;169.18;;;155.85;;
16308;SDS011;8263;48.880;9.276;2024-03-23T14:23:13;165.15;;;152.25;;
16308;SDS011;8263;48.880;9.276;2024-03-23T14:25:40;166.27;;;153.20;;
16308;SDS011;8263;48.880;9.276;2024-03-23T14:28:05;166.85;;;153.75;;
16308;SDS011;8263;48.880;9.276;2024-03-23T14:30:34;167.02;;;153.88;;
16308;SDS011;8263;48.880;9.276;2024-03-23T14:33:00;166.82;;;153.73;;
16308;SDS011;8263;48.880;9.276;2024-03-23T14:35:27;164.65;;;151.77;;
16308;SDS011;8263;48.880;9.276;2024-03-23T14:37:54;167.07;;;153.90;;
16308;SDS011;8263;48.880;9.276;2024-03-23T14:40:21;166.20;;;153.15;;
16308;SDS011;8263;48.880;9.276;2024-03-23T14:42:46;166.77;;;153.65;;
16308;SDS011;8263;48.880;9.276;2024-03-23T14:45:13;166.80;;;153.68;;
16308;SDS011;8263;48.880;9.276;2024-03-23T14:47:40;168.13;;;154.85;;
16308;SDS011;8263;48.880;9.276;2024-03-23T14:50:08;167.35;;;154.02;;
16308;SDS011;8263;48.880;9.276;2024-03-23T14:52:35;167.10;;;153.88;;
16308;SDS011;8263;48.880;9.276;2024-03-23T14:55:02;167.43;;;154.23;;
16308;SDS011;8263;48.880;9.276;2024-03-23T14:57:28;167.48;;;154.27;;
16308;SDS011;8263;48.880;9.276;2024-03-23T14:59:54;168.07;;;154.80;;
16308;SDS011;8263;48.880;9.276;2024-03-23T15:02:21;167.63;;;154.43;;
16308;SDS011;8263;48.880;9.276;2024-03-23T15:04:46;167.07;;;153.95;;